sensor_id;sensor_type;location;lat;lon;timestamp;P1;durP1;ratioP1;P2;durP2;ratioP2
7587;SDS011;3835;48.850;8.938;2022-09-04T00:01:46;16.80;;;15.70;;
7587;SDS011;3835;48.850;8.938;2022-09-04T00:04:24;18.10;;;16.93;;
7587;SDS011;3835;48.850;8.938;2022-09-04T00:07:04;17.23;;;16.03;;
7587;SDS011;3835;48.850;8.938;2022-09-04T00:09:40;16.97;;;15.97;;
7587;SDS011;3835;48.850;8.938;2022-09-04T00:12:15;16.90;;;15.83;;
7587;SDS011;3835;48.850;8.938;2022-09-04T00:14:48;18.20;;;16.83;;
7587;SDS011;3835;48.850;8.938;2022-09-04T00:17:19;17.30;;;16.10;;
7587;SDS011;3835;48.850;8.938;2022-09-04T00:19:54;20.30;;;18.90;;
7587;SDS011;3835;48.850;8.938;2022-09-04T00:22:29;17.10;;;15.67;;
7587;SDS011;3835;48.850;8.938;2022-09-04T00:25:02;15.87;;;14.87;;
7587;SDS011;3835;48.850;8.938;2022-09-04T00:27:37;16.33;;;15.13;;
7587;SDS011;3835;48.850;8.938;2022-09-04T00:30:10;17.53;;;16.20;;
7587;SDS011;3835;48.850;8.938;2022-09-04T00:32:42;18.27;;;17.03;;
7587;SDS011;3835;48.850;8.938;2022-09-04T00:35:13;17.30;;;16.10;;
7587;SDS011;3835;48.850;8.938;2022-09-04T00:37:43;16.77;;;15.67;;
7587;SDS011;3835;48.850;8.938;2022-09-04T00:40:15;16.07;;;14.77;;
7587;SDS011;3835;48.850;8.938;2022-09-04T00:43:04;17.80;;;16.63;;
7587;SDS011;3835;48.850;8.938;2022-09-04T00:45:59;18.70;;;17.40;;
7587;SDS011;3835;48.850;8.938;2022-09-04T00:48:47;18.93;;;17.73;;
7587;SDS011;3835;48.850;8.938;2022-09-04T00:51:35;17.97;;;16.77;;
7587;SDS011;3835;48.850;8.938;2022-09-04T00:57:42;18.03;;;16.93;;
7587;SDS011;3835;48.850;8.938;2022-09-04T01:00:39;17.70;;;16.43;;
7587;SDS011;3835;48.850;8.938;2022-09-04T01:06:14;18.27;;;17.07;;
7587;SDS011;3835;48.850;8.938;2022-09-04T01:08:49;17.87;;;16.77;;
7587;SDS011;3835;48.850;8.938;2022-09-04T01:11:38;17.43;;;16.37;;
7587;SDS011;3835;48.850;8.938;2022-09-04T01:14:11;18.97;;;17.57;;
7587;SDS011;3835;48.850;8.938;2022-09-04T01:16:45;17.50;;;16.37;;
7587;SDS011;3835;48.850;8.938;2022-09-04T01:19:18;18.40;;;17.27;;
7587;SDS011;3835;48.850;8.938;2022-09-04T01:22:08;17.00;;;15.90;;
7587;SDS011;3835;48.850;8.938;2022-09-04T01:24:58;17.57;;;16.47;;
7587;SDS011;3835;48.850;8.938;2022-09-04T01:27:39;18.30;;;17.10;;
7587;SDS011;3835;48.850;8.938;2022-09-04T01:30:15;16.47;;;15.53;;
7587;SDS011;3835;48.850;8.938;2022-09-04T01:32:47;17.90;;;16.80;;
7587;SDS011;3835;48.850;8.938;2022-09-04T01:35:29;16.83;;;15.83;;
7587;SDS011;3835;48.850;8.938;2022-09-04T01:38:01;16.53;;;15.43;;
7587;SDS011;3835;48.850;8.938;2022-09-04T01:40:38;17.60;;;16.60;;
7587;SDS011;3835;48.850;8.938;2022-09-04T01:43:11;17.90;;;16.70;;
7587;SDS011;3835;48.850;8.938;2022-09-04T01:45:44;16.67;;;15.67;;
7587;SDS011;3835;48.850;8.938;2022-09-04T01:48:26;16.17;;;15.10;;
7587;SDS011;3835;48.850;8.938;2022-09-04T01:51:01;17.37;;;16.27;;
7587;SDS011;3835;48.850;8.938;2022-09-04T01:53:33;15.70;;;14.50;;
7587;SDS011;3835;48.850;8.938;2022-09-04T01:56:08;16.53;;;15.43;;
7587;SDS011;3835;48.850;8.938;2022-09-04T01:58:45;17.67;;;16.47;;
7587;SDS011;3835;48.850;8.938;2022-09-04T02:01:19;16.33;;;15.30;;
7587;SDS011;3835;48.850;8.938;2022-09-04T02:03:56;17.03;;;15.87;;
7587;SDS011;3835;48.850;8.938;2022-09-04T02:06:34;17.83;;;16.83;;
7587;SDS011;3835;48.850;8.938;2022-09-04T02:09:14;16.40;;;15.43;;
7587;SDS011;3835;48.850;8.938;2022-09-04T02:11:56;16.27;;;15.30;;
7587;SDS011;3835;48.850;8.938;2022-09-04T02:14:34;17.10;;;16.13;;
7587;SDS011;3835;48.850;8.938;2022-09-04T02:17:08;16.27;;;15.27;;
7587;SDS011;3835;48.850;8.938;2022-09-04T02:19:40;15.70;;;14.80;;
7587;SDS011;3835;48.850;8.938;2022-09-04T02:22:31;16.77;;;15.83;;
7587;SDS011;3835;48.850;8.938;2022-09-04T02:25:09;14.97;;;14.07;;
7587;SDS011;3835;48.850;8.938;2022-09-04T02:27:44;16.00;;;15.10;;
7587;SDS011;3835;48.850;8.938;2022-09-04T02:30:20;14.30;;;13.47;;
7587;SDS011;3835;48.850;8.938;2022-09-04T02:32:48;14.87;;;13.90;;
7587;SDS011;3835;48.850;8.938;2022-09-04T02:35:23;17.03;;;16.10;;
7587;SDS011;3835;48.850;8.938;2022-09-04T02:38:00;15.50;;;14.63;;
7587;SDS011;3835;48.850;8.938;2022-09-04T02:40:40;15.50;;;14.50;;
7587;SDS011;3835;48.850;8.938;2022-09-04T02:43:18;16.90;;;16.00;;
7587;SDS011;3835;48.850;8.938;2022-09-04T02:45:56;15.57;;;14.67;;
7587;SDS011;3835;48.850;8.938;2022-09-04T02:48:30;17.43;;;16.27;;
7587;SDS011;3835;48.850;8.938;2022-09-04T02:51:09;15.87;;;14.97;;
7587;SDS011;3835;48.850;8.938;2022-09-04T02:53:48;14.83;;;14.03;;
7587;SDS011;3835;48.850;8.938;2022-09-04T02:56:26;15.43;;;14.63;;
7587;SDS011;3835;48.850;8.938;2022-09-04T02:59:09;15.23;;;14.33;;
7587;SDS011;3835;48.850;8.938;2022-09-04T03:01:49;15.53;;;14.43;;
7587;SDS011;3835;48.850;8.938;2022-09-04T03:04:22;14.97;;;14.07;;
7587;SDS011;3835;48.850;8.938;2022-09-04T03:06:55;15.57;;;14.77;;
7587;SDS011;3835;48.850;8.938;2022-09-04T03:09:28;16.50;;;15.47;;
7587;SDS011;3835;48.850;8.938;2022-09-04T03:12:02;16.13;;;15.17;;
7587;SDS011;3835;48.850;8.938;2022-09-04T03:14:40;15.33;;;14.53;;
7587;SDS011;3835;48.850;8.938;2022-09-04T03:17:14;14.40;;;13.70;;
7587;SDS011;3835;48.850;8.938;2022-09-04T03:19:49;14.43;;;13.60;;
7587;SDS011;3835;48.850;8.938;2022-09-04T03:22:25;14.73;;;13.93;;
7587;SDS011;3835;48.850;8.938;2022-09-04T03:25:05;16.10;;;15.10;;
7587;SDS011;3835;48.850;8.938;2022-09-04T03:27:50;14.20;;;13.37;;
7587;SDS011;3835;48.850;8.938;2022-09-04T03:30:17;15.40;;;14.50;;
7587;SDS011;3835;48.850;8.938;2022-09-04T03:32:47;15.87;;;15.00;;
7587;SDS011;3835;48.850;8.938;2022-09-04T03:35:20;17.27;;;16.37;;
7587;SDS011;3835;48.850;8.938;2022-09-04T03:37:58;16.70;;;15.80;;
7587;SDS011;3835;48.850;8.938;2022-09-04T03:40:35;16.87;;;15.97;;
7587;SDS011;3835;48.850;8.938;2022-09-04T03:45:58;15.97;;;15.03;;
7587;SDS011;3835;48.850;8.938;2022-09-04T03:48:41;16.00;;;15.00;;
7587;SDS011;3835;48.850;8.938;2022-09-04T03:51:17;15.70;;;14.90;;
7587;SDS011;3835;48.850;8.938;2022-09-04T03:53:51;15.17;;;14.27;;
7587;SDS011;3835;48.850;8.938;2022-09-04T03:56:31;16.40;;;15.50;;
7587;SDS011;3835;48.850;8.938;2022-09-04T03:59:31;15.00;;;14.20;;
7587;SDS011;3835;48.850;8.938;2022-09-04T04:02:17;15.90;;;15.07;;
7587;SDS011;3835;48.850;8.938;2022-09-04T04:05:00;15.90;;;14.90;;
7587;SDS011;3835;48.850;8.938;2022-09-04T04:07:39;17.03;;;16.13;;
7587;SDS011;3835;48.850;8.938;2022-09-04T04:10:17;14.27;;;13.47;;
7587;SDS011;3835;48.850;8.938;2022-09-04T04:13:09;16.43;;;15.43;;
7587;SDS011;3835;48.850;8.938;2022-09-04T04:15:48;15.07;;;14.27;;
7587;SDS011;3835;48.850;8.938;2022-09-04T04:18:33;18.47;;;17.47;;
7587;SDS011;3835;48.850;8.938;2022-09-04T04:21:17;14.70;;;14.00;;
7587;SDS011;3835;48.850;8.938;2022-09-04T04:23:59;15.70;;;14.70;;
7587;SDS011;3835;48.850;8.938;2022-09-04T04:26:41;15.43;;;14.47;;
7587;SDS011;3835;48.850;8.938;2022-09-04T04:29:38;15.77;;;14.73;;
7587;SDS011;3835;48.850;8.938;2022-09-04T04:32:22;14.77;;;13.97;;
7587;SDS011;3835;48.850;8.938;2022-09-04T04:35:08;15.10;;;14.23;;
7587;SDS011;3835;48.850;8.938;2022-09-04T04:37:48;16.33;;;15.43;;
7587;SDS011;3835;48.850;8.938;2022-09-04T04:40:29;15.33;;;14.53;;
7587;SDS011;3835;48.850;8.938;2022-09-04T04:43:14;16.70;;;15.80;;
7587;SDS011;3835;48.850;8.938;2022-09-04T04:45:47;16.40;;;15.60;;
7587;SDS011;3835;48.850;8.938;2022-09-04T04:51:41;18.43;;;17.33;;
7587;SDS011;3835;48.850;8.938;2022-09-04T04:54:28;17.10;;;16.13;;
7587;SDS011;3835;48.850;8.938;2022-09-04T04:57:12;17.70;;;16.80;;
7587;SDS011;3835;48.850;8.938;2022-09-04T04:59:50;18.20;;;17.20;;
7587;SDS011;3835;48.850;8.938;2022-09-04T05:02:27;16.90;;;16.10;;
7587;SDS011;3835;48.850;8.938;2022-09-04T05:04:57;18.20;;;17.27;;
7587;SDS011;3835;48.850;8.938;2022-09-04T05:07:30;18.13;;;17.23;;
7587;SDS011;3835;48.850;8.938;2022-09-04T05:10:07;15.20;;;14.40;;
7587;SDS011;3835;48.850;8.938;2022-09-04T05:12:56;16.77;;;15.80;;
7587;SDS011;3835;48.850;8.938;2022-09-04T05:15:33;17.47;;;16.57;;
7587;SDS011;3835;48.850;8.938;2022-09-04T05:18:07;13.70;;;13.00;;
7587;SDS011;3835;48.850;8.938;2022-09-04T05:20:40;15.47;;;14.67;;
7587;SDS011;3835;48.850;8.938;2022-09-04T05:23:24;15.87;;;14.97;;
7587;SDS011;3835;48.850;8.938;2022-09-04T05:26:02;16.23;;;15.43;;
7587;SDS011;3835;48.850;8.938;2022-09-04T05:28:39;14.63;;;13.90;;
7587;SDS011;3835;48.850;8.938;2022-09-04T05:31:15;14.20;;;13.43;;
7587;SDS011;3835;48.850;8.938;2022-09-04T05:33:50;15.20;;;14.37;;
7587;SDS011;3835;48.850;8.938;2022-09-04T05:36:29;14.30;;;13.50;;
7587;SDS011;3835;48.850;8.938;2022-09-04T05:39:04;14.27;;;13.47;;
7587;SDS011;3835;48.850;8.938;2022-09-04T05:41:40;15.17;;;14.37;;
7587;SDS011;3835;48.850;8.938;2022-09-04T05:44:23;13.93;;;13.00;;
7587;SDS011;3835;48.850;8.938;2022-09-04T05:47:04;14.70;;;13.90;;
7587;SDS011;3835;48.850;8.938;2022-09-04T05:49:45;14.43;;;13.73;;
7587;SDS011;3835;48.850;8.938;2022-09-04T05:52:35;14.30;;;13.60;;
7587;SDS011;3835;48.850;8.938;2022-09-04T05:58:29;14.37;;;13.67;;
7587;SDS011;3835;48.850;8.938;2022-09-04T06:01:10;16.10;;;15.30;;
7587;SDS011;3835;48.850;8.938;2022-09-04T06:03:53;15.33;;;14.50;;
7587;SDS011;3835;48.850;8.938;2022-09-04T06:06:52;15.90;;;15.10;;
7587;SDS011;3835;48.850;8.938;2022-09-04T06:09:30;16.13;;;15.33;;
7587;SDS011;3835;48.850;8.938;2022-09-04T06:12:17;14.63;;;13.83;;
7587;SDS011;3835;48.850;8.938;2022-09-04T06:18:06;14.87;;;14.07;;
7587;SDS011;3835;48.850;8.938;2022-09-04T06:20:51;15.33;;;14.53;;
7587;SDS011;3835;48.850;8.938;2022-09-04T06:23:36;15.37;;;14.57;;
7587;SDS011;3835;48.850;8.938;2022-09-04T06:26:17;15.23;;;14.27;;
7587;SDS011;3835;48.850;8.938;2022-09-04T06:29:01;15.53;;;14.63;;
7587;SDS011;3835;48.850;8.938;2022-09-04T06:31:47;15.93;;;15.13;;
7587;SDS011;3835;48.850;8.938;2022-09-04T06:37:22;15.83;;;15.03;;
7587;SDS011;3835;48.850;8.938;2022-09-04T06:40:07;13.70;;;13.03;;
7587;SDS011;3835;48.850;8.938;2022-09-04T06:42:49;15.33;;;14.63;;
7587;SDS011;3835;48.850;8.938;2022-09-04T06:45:29;13.63;;;12.93;;
7587;SDS011;3835;48.850;8.938;2022-09-04T06:48:11;13.43;;;12.73;;
7587;SDS011;3835;48.850;8.938;2022-09-04T06:50:48;13.70;;;13.00;;
7587;SDS011;3835;48.850;8.938;2022-09-04T06:53:27;13.97;;;13.27;;
7587;SDS011;3835;48.850;8.938;2022-09-04T06:56:07;14.03;;;13.33;;
7587;SDS011;3835;48.850;8.938;2022-09-04T06:58:54;14.30;;;13.50;;
7587;SDS011;3835;48.850;8.938;2022-09-04T07:01:39;14.47;;;13.80;;
7587;SDS011;3835;48.850;8.938;2022-09-04T07:04:21;14.73;;;13.80;;
7587;SDS011;3835;48.850;8.938;2022-09-04T07:06:57;13.60;;;13.00;;
7587;SDS011;3835;48.850;8.938;2022-09-04T07:09:34;13.43;;;12.83;;
7587;SDS011;3835;48.850;8.938;2022-09-04T07:12:15;13.63;;;13.03;;
7587;SDS011;3835;48.850;8.938;2022-09-04T07:18:05;14.97;;;14.33;;
7587;SDS011;3835;48.850;8.938;2022-09-04T07:20:45;13.07;;;12.37;;
7587;SDS011;3835;48.850;8.938;2022-09-04T07:23:21;13.90;;;13.30;;
7587;SDS011;3835;48.850;8.938;2022-09-04T07:26:02;15.13;;;14.23;;
7587;SDS011;3835;48.850;8.938;2022-09-04T07:28:42;13.77;;;13.17;;
7587;SDS011;3835;48.850;8.938;2022-09-04T07:31:23;15.80;;;15.10;;
7587;SDS011;3835;48.850;8.938;2022-09-04T07:33:56;14.03;;;13.43;;
7587;SDS011;3835;48.850;8.938;2022-09-04T07:36:29;14.67;;;13.97;;
7587;SDS011;3835;48.850;8.938;2022-09-04T07:39:03;15.60;;;14.90;;
7587;SDS011;3835;48.850;8.938;2022-09-04T07:41:39;16.17;;;15.47;;
7587;SDS011;3835;48.850;8.938;2022-09-04T07:44:12;13.47;;;12.87;;
7587;SDS011;3835;48.850;8.938;2022-09-04T07:46:45;13.43;;;12.83;;
7587;SDS011;3835;48.850;8.938;2022-09-04T07:49:25;14.23;;;13.53;;
7587;SDS011;3835;48.850;8.938;2022-09-04T07:52:01;12.63;;;12.03;;
7587;SDS011;3835;48.850;8.938;2022-09-04T07:54:44;12.23;;;11.63;;
7587;SDS011;3835;48.850;8.938;2022-09-04T07:57:48;12.47;;;11.87;;
7587;SDS011;3835;48.850;8.938;2022-09-04T08:00:47;12.70;;;12.10;;
7587;SDS011;3835;48.850;8.938;2022-09-04T08:03:29;14.23;;;13.63;;
7587;SDS011;3835;48.850;8.938;2022-09-04T08:06:08;14.20;;;13.60;;
7587;SDS011;3835;48.850;8.938;2022-09-04T08:08:45;12.20;;;11.70;;
7587;SDS011;3835;48.850;8.938;2022-09-04T08:11:43;12.20;;;11.70;;
7587;SDS011;3835;48.850;8.938;2022-09-04T08:14:35;12.37;;;11.83;;
7587;SDS011;3835;48.850;8.938;2022-09-04T08:17:21;12.37;;;11.77;;
7587;SDS011;3835;48.850;8.938;2022-09-04T08:20:08;14.33;;;13.73;;
7587;SDS011;3835;48.850;8.938;2022-09-04T08:22:44;12.53;;;12.03;;
7587;SDS011;3835;48.850;8.938;2022-09-04T08:25:23;13.83;;;13.23;;
7587;SDS011;3835;48.850;8.938;2022-09-04T08:30:43;12.07;;;11.57;;
7587;SDS011;3835;48.850;8.938;2022-09-04T08:33:22;11.70;;;11.10;;
7587;SDS011;3835;48.850;8.938;2022-09-04T08:36:15;13.27;;;12.60;;
7587;SDS011;3835;48.850;8.938;2022-09-04T08:38:52;13.07;;;12.57;;
7587;SDS011;3835;48.850;8.938;2022-09-04T08:54:17;16.97;;;16.17;;
7587;SDS011;3835;48.850;8.938;2022-09-04T08:57:24;12.20;;;11.70;;
7587;SDS011;3835;48.850;8.938;2022-09-04T09:00:05;12.03;;;11.33;;
7587;SDS011;3835;48.850;8.938;2022-09-04T09:05:44;12.23;;;11.73;;
7587;SDS011;3835;48.850;8.938;2022-09-04T09:12:09;12.83;;;12.13;;
7587;SDS011;3835;48.850;8.938;2022-09-04T09:15:14;11.33;;;10.83;;
7587;SDS011;3835;48.850;8.938;2022-09-04T09:18:13;12.93;;;12.43;;
7587;SDS011;3835;48.850;8.938;2022-09-04T09:21:04;12.67;;;12.03;;
7587;SDS011;3835;48.850;8.938;2022-09-04T09:23:38;13.80;;;13.17;;
7587;SDS011;3835;48.850;8.938;2022-09-04T09:26:27;11.80;;;11.30;;
7587;SDS011;3835;48.850;8.938;2022-09-04T09:32:04;13.53;;;13.00;;
7587;SDS011;3835;48.850;8.938;2022-09-04T09:35:09;12.73;;;12.13;;
7587;SDS011;3835;48.850;8.938;2022-09-04T09:41:15;13.07;;;12.57;;
7587;SDS011;3835;48.850;8.938;2022-09-04T09:44:09;13.37;;;12.77;;
7587;SDS011;3835;48.850;8.938;2022-09-04T09:50:27;14.67;;;14.07;;
7587;SDS011;3835;48.850;8.938;2022-09-04T09:56:33;13.70;;;13.10;;
7587;SDS011;3835;48.850;8.938;2022-09-04T10:02:29;13.50;;;12.33;;
7587;SDS011;3835;48.850;8.938;2022-09-04T10:08:23;11.60;;;11.00;;
7587;SDS011;3835;48.850;8.938;2022-09-04T10:11:07;13.33;;;12.73;;
7587;SDS011;3835;48.850;8.938;2022-09-04T10:13:52;11.83;;;11.33;;
7587;SDS011;3835;48.850;8.938;2022-09-04T10:16:50;12.20;;;11.70;;
7587;SDS011;3835;48.850;8.938;2022-09-04T10:19:50;12.87;;;12.20;;
7587;SDS011;3835;48.850;8.938;2022-09-04T10:25:52;15.10;;;14.30;;
7587;SDS011;3835;48.850;8.938;2022-09-04T10:31:39;13.20;;;12.63;;
7587;SDS011;3835;48.850;8.938;2022-09-04T10:37:17;15.73;;;15.13;;
7587;SDS011;3835;48.850;8.938;2022-09-04T10:40:00;13.80;;;13.20;;
7587;SDS011;3835;48.850;8.938;2022-09-04T10:42:58;9.90;;;9.50;;
7587;SDS011;3835;48.850;8.938;2022-09-04T10:45:43;13.73;;;13.13;;
7587;SDS011;3835;48.850;8.938;2022-09-04T10:54:12;10.90;;;10.40;;
7587;SDS011;3835;48.850;8.938;2022-09-04T10:56:57;12.13;;;11.63;;
7587;SDS011;3835;48.850;8.938;2022-09-04T11:05:39;10.77;;;10.27;;
7587;SDS011;3835;48.850;8.938;2022-09-04T11:08:38;12.17;;;11.57;;
7587;SDS011;3835;48.850;8.938;2022-09-04T11:17:21;12.43;;;11.93;;
7587;SDS011;3835;48.850;8.938;2022-09-04T11:20:14;13.03;;;12.50;;
7587;SDS011;3835;48.850;8.938;2022-09-04T11:23:17;13.27;;;12.67;;
7587;SDS011;3835;48.850;8.938;2022-09-04T11:26:04;13.27;;;12.67;;
7587;SDS011;3835;48.850;8.938;2022-09-04T11:29:14;11.73;;;11.23;;
7587;SDS011;3835;48.850;8.938;2022-09-04T11:32:09;11.90;;;11.30;;
7587;SDS011;3835;48.850;8.938;2022-09-04T11:37:58;10.97;;;10.47;;
7587;SDS011;3835;48.850;8.938;2022-09-04T11:40:37;11.47;;;10.87;;
7587;SDS011;3835;48.850;8.938;2022-09-04T11:43:43;11.07;;;10.57;;
7587;SDS011;3835;48.850;8.938;2022-09-04T11:46:31;11.53;;;10.93;;
7587;SDS011;3835;48.850;8.938;2022-09-04T11:49:19;12.57;;;11.97;;
7587;SDS011;3835;48.850;8.938;2022-09-04T11:52:14;11.00;;;10.40;;
7587;SDS011;3835;48.850;8.938;2022-09-04T11:55:08;10.93;;;10.33;;
7587;SDS011;3835;48.850;8.938;2022-09-04T11:57:57;12.60;;;12.10;;
7587;SDS011;3835;48.850;8.938;2022-09-04T12:00:38;12.53;;;11.93;;
7587;SDS011;3835;48.850;8.938;2022-09-04T12:03:29;11.60;;;11.10;;
7587;SDS011;3835;48.850;8.938;2022-09-04T12:06:10;10.93;;;10.53;;
7587;SDS011;3835;48.850;8.938;2022-09-04T12:12:27;12.03;;;11.53;;
7587;SDS011;3835;48.850;8.938;2022-09-04T12:18:19;10.87;;;10.37;;
7587;SDS011;3835;48.850;8.938;2022-09-04T12:21:15;10.93;;;10.47;;
7587;SDS011;3835;48.850;8.938;2022-09-04T12:24:13;12.83;;;12.20;;
7587;SDS011;3835;48.850;8.938;2022-09-04T12:27:06;13.90;;;13.30;;
7587;SDS011;3835;48.850;8.938;2022-09-04T12:30:00;12.63;;;11.93;;
7587;SDS011;3835;48.850;8.938;2022-09-04T12:35:35;12.67;;;12.17;;
7587;SDS011;3835;48.850;8.938;2022-09-04T12:38:40;10.37;;;9.97;;
7587;SDS011;3835;48.850;8.938;2022-09-04T12:41:28;11.30;;;10.80;;
7587;SDS011;3835;48.850;8.938;2022-09-04T12:44:03;15.03;;;14.43;;
7587;SDS011;3835;48.850;8.938;2022-09-04T12:46:45;12.30;;;11.80;;
7587;SDS011;3835;48.850;8.938;2022-09-04T12:49:35;10.83;;;10.33;;
7587;SDS011;3835;48.850;8.938;2022-09-04T12:52:24;11.00;;;10.40;;
7587;SDS011;3835;48.850;8.938;2022-09-04T12:55:05;10.97;;;10.47;;
7587;SDS011;3835;48.850;8.938;2022-09-04T12:57:40;11.13;;;10.63;;
7587;SDS011;3835;48.850;8.938;2022-09-04T13:00:19;12.77;;;12.07;;
7587;SDS011;3835;48.850;8.938;2022-09-04T13:02:53;11.73;;;11.23;;
7587;SDS011;3835;48.850;8.938;2022-09-04T13:05:29;11.10;;;10.60;;
7587;SDS011;3835;48.850;8.938;2022-09-04T13:08:18;10.50;;;10.10;;
7587;SDS011;3835;48.850;8.938;2022-09-04T13:10:59;11.03;;;10.63;;
7587;SDS011;3835;48.850;8.938;2022-09-04T13:13:40;10.90;;;10.40;;
7587;SDS011;3835;48.850;8.938;2022-09-04T13:16:15;12.33;;;11.83;;
7587;SDS011;3835;48.850;8.938;2022-09-04T13:18:52;11.93;;;11.23;;
7587;SDS011;3835;48.850;8.938;2022-09-04T13:21:35;12.13;;;11.27;;
7587;SDS011;3835;48.850;8.938;2022-09-04T13:24:20;12.00;;;11.50;;
7587;SDS011;3835;48.850;8.938;2022-09-04T13:27:03;10.77;;;10.27;;
7587;SDS011;3835;48.850;8.938;2022-09-04T13:29:43;11.50;;;11.00;;
7587;SDS011;3835;48.850;8.938;2022-09-04T13:35:19;11.23;;;10.73;;
7587;SDS011;3835;48.850;8.938;2022-09-04T13:38:04;9.73;;;9.23;;
7587;SDS011;3835;48.850;8.938;2022-09-04T13:40:58;13.33;;;12.77;;
7587;SDS011;3835;48.850;8.938;2022-09-04T13:43:50;10.70;;;10.30;;
7587;SDS011;3835;48.850;8.938;2022-09-04T13:46:34;9.83;;;9.43;;
7587;SDS011;3835;48.850;8.938;2022-09-04T13:49:06;10.17;;;9.77;;
7587;SDS011;3835;48.850;8.938;2022-09-04T13:51:39;10.97;;;10.47;;
7587;SDS011;3835;48.850;8.938;2022-09-04T13:54:13;10.03;;;9.63;;
7587;SDS011;3835;48.850;8.938;2022-09-04T13:56:48;11.00;;;10.50;;
7587;SDS011;3835;48.850;8.938;2022-09-04T13:59:21;11.17;;;10.67;;
7587;SDS011;3835;48.850;8.938;2022-09-04T14:01:50;11.70;;;11.20;;
7587;SDS011;3835;48.850;8.938;2022-09-04T14:04:20;10.07;;;9.50;;
7587;SDS011;3835;48.850;8.938;2022-09-04T14:06:53;10.13;;;9.73;;
7587;SDS011;3835;48.850;8.938;2022-09-04T14:09:26;10.43;;;9.93;;
7587;SDS011;3835;48.850;8.938;2022-09-04T14:12:01;12.30;;;11.80;;
7587;SDS011;3835;48.850;8.938;2022-09-04T14:18:08;11.77;;;11.27;;
7587;SDS011;3835;48.850;8.938;2022-09-04T14:20:48;10.30;;;9.80;;
7587;SDS011;3835;48.850;8.938;2022-09-04T14:23:24;10.23;;;9.83;;
7587;SDS011;3835;48.850;8.938;2022-09-04T14:25:58;10.57;;;10.07;;
7587;SDS011;3835;48.850;8.938;2022-09-04T14:28:39;10.60;;;10.20;;
7587;SDS011;3835;48.850;8.938;2022-09-04T14:31:14;9.47;;;9.03;;
7587;SDS011;3835;48.850;8.938;2022-09-04T14:33:48;10.57;;;10.17;;
7587;SDS011;3835;48.850;8.938;2022-09-04T14:36:23;10.93;;;10.50;;
7587;SDS011;3835;48.850;8.938;2022-09-04T14:39:04;10.13;;;9.73;;
7587;SDS011;3835;48.850;8.938;2022-09-04T14:41:42;9.87;;;9.47;;
7587;SDS011;3835;48.850;8.938;2022-09-04T14:44:19;10.73;;;10.23;;
7587;SDS011;3835;48.850;8.938;2022-09-04T14:46:59;10.73;;;10.23;;
7587;SDS011;3835;48.850;8.938;2022-09-04T14:49:38;10.37;;;9.97;;
7587;SDS011;3835;48.850;8.938;2022-09-04T14:52:09;10.37;;;9.97;;
7587;SDS011;3835;48.850;8.938;2022-09-04T14:54:42;11.03;;;10.53;;
7587;SDS011;3835;48.850;8.938;2022-09-04T14:57:11;10.67;;;10.20;;
7587;SDS011;3835;48.850;8.938;2022-09-04T14:59:45;10.30;;;9.40;;
7587;SDS011;3835;48.850;8.938;2022-09-04T15:02:20;10.30;;;9.90;;
7587;SDS011;3835;48.850;8.938;2022-09-04T15:04:57;10.80;;;10.37;;
7587;SDS011;3835;48.850;8.938;2022-09-04T15:07:29;10.87;;;10.37;;
7587;SDS011;3835;48.850;8.938;2022-09-04T15:10:15;10.23;;;9.83;;
7587;SDS011;3835;48.850;8.938;2022-09-04T15:12:48;10.73;;;10.27;;
7587;SDS011;3835;48.850;8.938;2022-09-04T15:15:22;11.53;;;11.03;;
7587;SDS011;3835;48.850;8.938;2022-09-04T15:17:56;9.70;;;9.30;;
7587;SDS011;3835;48.850;8.938;2022-09-04T15:20:30;10.93;;;10.30;;
7587;SDS011;3835;48.850;8.938;2022-09-04T15:23:00;11.37;;;10.87;;
7587;SDS011;3835;48.850;8.938;2022-09-04T15:25:42;11.93;;;11.33;;
7587;SDS011;3835;48.850;8.938;2022-09-04T15:28:15;9.77;;;9.37;;
7587;SDS011;3835;48.850;8.938;2022-09-04T15:30:58;10.40;;;9.90;;
7587;SDS011;3835;48.850;8.938;2022-09-04T15:33:29;11.47;;;10.97;;
7587;SDS011;3835;48.850;8.938;2022-09-04T15:36:01;10.70;;;10.30;;
7587;SDS011;3835;48.850;8.938;2022-09-04T15:38:32;10.73;;;10.27;;
7587;SDS011;3835;48.850;8.938;2022-09-04T15:41:02;10.97;;;10.47;;
7587;SDS011;3835;48.850;8.938;2022-09-04T15:43:36;10.83;;;10.33;;
7587;SDS011;3835;48.850;8.938;2022-09-04T15:46:10;11.30;;;10.70;;
7587;SDS011;3835;48.850;8.938;2022-09-04T15:48:47;11.67;;;11.00;;
7587;SDS011;3835;48.850;8.938;2022-09-04T15:51:22;11.43;;;10.87;;
7587;SDS011;3835;48.850;8.938;2022-09-04T15:54:11;12.33;;;11.83;;
7587;SDS011;3835;48.850;8.938;2022-09-04T15:56:52;11.67;;;11.17;;
7587;SDS011;3835;48.850;8.938;2022-09-04T15:59:25;12.40;;;11.87;;
7587;SDS011;3835;48.850;8.938;2022-09-04T16:02:02;12.73;;;12.20;;
7587;SDS011;3835;48.850;8.938;2022-09-04T16:04:36;12.07;;;11.57;;
7587;SDS011;3835;48.850;8.938;2022-09-04T16:07:27;10.93;;;10.43;;
7587;SDS011;3835;48.850;8.938;2022-09-04T16:10:08;12.43;;;11.93;;
7587;SDS011;3835;48.850;8.938;2022-09-04T16:12:41;9.60;;;9.20;;
7587;SDS011;3835;48.850;8.938;2022-09-04T16:15:17;9.60;;;9.13;;
7587;SDS011;3835;48.850;8.938;2022-09-04T16:17:50;10.73;;;10.23;;
7587;SDS011;3835;48.850;8.938;2022-09-04T16:20:19;10.60;;;10.10;;
7587;SDS011;3835;48.850;8.938;2022-09-04T16:22:52;10.20;;;9.80;;
7587;SDS011;3835;48.850;8.938;2022-09-04T16:25:23;9.57;;;9.17;;
7587;SDS011;3835;48.850;8.938;2022-09-04T16:27:55;9.80;;;9.40;;
7587;SDS011;3835;48.850;8.938;2022-09-04T16:30:30;10.83;;;10.33;;
7587;SDS011;3835;48.850;8.938;2022-09-04T16:33:02;10.30;;;9.90;;
7587;SDS011;3835;48.850;8.938;2022-09-04T16:35:32;12.43;;;11.90;;
7587;SDS011;3835;48.850;8.938;2022-09-04T16:38:05;13.20;;;12.70;;
7587;SDS011;3835;48.850;8.938;2022-09-04T16:40:39;12.07;;;11.47;;
7587;SDS011;3835;48.850;8.938;2022-09-04T16:43:17;10.93;;;10.43;;
7587;SDS011;3835;48.850;8.938;2022-09-04T16:45:49;13.53;;;13.00;;
7587;SDS011;3835;48.850;8.938;2022-09-04T16:48:23;10.57;;;10.07;;
7587;SDS011;3835;48.850;8.938;2022-09-04T16:50:56;12.37;;;11.87;;
7587;SDS011;3835;48.850;8.938;2022-09-04T16:53:31;10.57;;;10.17;;
7587;SDS011;3835;48.850;8.938;2022-09-04T16:56:04;13.30;;;12.70;;
7587;SDS011;3835;48.850;8.938;2022-09-04T16:58:43;12.57;;;11.97;;
7587;SDS011;3835;48.850;8.938;2022-09-04T17:01:19;15.67;;;15.00;;
7587;SDS011;3835;48.850;8.938;2022-09-04T17:04:01;12.37;;;11.87;;
7587;SDS011;3835;48.850;8.938;2022-09-04T17:06:42;12.60;;;12.00;;
7587;SDS011;3835;48.850;8.938;2022-09-04T17:09:27;13.07;;;12.47;;
7587;SDS011;3835;48.850;8.938;2022-09-04T17:12:10;15.63;;;15.03;;
7587;SDS011;3835;48.850;8.938;2022-09-04T17:14:43;13.33;;;12.73;;
7587;SDS011;3835;48.850;8.938;2022-09-04T17:17:16;10.67;;;10.23;;
7587;SDS011;3835;48.850;8.938;2022-09-04T17:19:46;11.07;;;10.53;;
7587;SDS011;3835;48.850;8.938;2022-09-04T17:22:27;11.33;;;10.73;;
7587;SDS011;3835;48.850;8.938;2022-09-04T17:27:50;11.77;;;11.27;;
7587;SDS011;3835;48.850;8.938;2022-09-04T17:30:28;12.00;;;11.50;;
7587;SDS011;3835;48.850;8.938;2022-09-04T17:33:01;10.20;;;9.80;;
7587;SDS011;3835;48.850;8.938;2022-09-04T17:35:33;12.90;;;12.30;;
7587;SDS011;3835;48.850;8.938;2022-09-04T17:38:06;12.00;;;11.40;;
7587;SDS011;3835;48.850;8.938;2022-09-04T17:40:46;10.83;;;10.33;;
7587;SDS011;3835;48.850;8.938;2022-09-04T17:43:33;11.30;;;10.80;;
7587;SDS011;3835;48.850;8.938;2022-09-04T17:46:11;11.77;;;11.27;;
7587;SDS011;3835;48.850;8.938;2022-09-04T17:48:50;10.57;;;10.07;;
7587;SDS011;3835;48.850;8.938;2022-09-04T17:51:20;11.60;;;11.00;;
7587;SDS011;3835;48.850;8.938;2022-09-04T17:53:52;13.93;;;13.23;;
7587;SDS011;3835;48.850;8.938;2022-09-04T17:56:22;10.93;;;10.43;;
7587;SDS011;3835;48.850;8.938;2022-09-04T17:58:53;11.70;;;11.20;;
7587;SDS011;3835;48.850;8.938;2022-09-04T18:01:27;11.03;;;10.63;;